Station TWCO1 - Toledo Crib, OH Image indicating link to RSS feed of recent meteorological observations for station TWCO1


Conditions at TWCO1 as of
(10:40 pm EST on 12/06/2023)
0340 GMT on 12/07/2023:
     

Click on the graph icon in the table below to see a time series plot of the last five days of that observation.

5-day plot - Wind Direction Wind Direction (WDIR): W ( 260 deg true )
5-day plot - Wind Speed Wind Speed (WSPD): 17 kts
5-day plot - Wind Gust Wind Gust (GST): 21 kts
5-day plot - Air Temperature Air Temperature (ATMP): 35.6 °F
5-day plot - Dew Point Dew Point (DEWP): 30.7 °F
5-day plot - Wind Chill Wind Chill (CHILL): 24.8 °F
5-day plot - Wind Speed at 10 Meters Wind Speed at 10 meters (WSPD10M): 16 kts
5-day plot - Wind Speed at 20 Meters Wind Speed at 20 meters (WSPD20M): 17 kts
5-day plot -  Wind Speed, Wind Gust and Atmospheric Pressure Combined plot of Wind Speed, Gust, and Air Pressure
Previous observations
TIME
(EST)
5-day plot - Wind Direction
WDIR
 
5-day plot - Wind Speed
WSPD
kts
5-day plot - Wind Gust
GST
kts
5-day plot - Wave Height
WVHT
ft
5-day plot - Dominant Wave Period
DPD
sec
5-day plot - Average Wave Period
APD
sec
5-day plot - Mean Wave Direction
MWD
 
5-day plot - Atmospheric Pressure
PRES
in
5-day plot - Pressure Tendency
PTDY
in
5-day plot - Air Temperature
ATMP
°F
5-day plot - Water Temperature
WTMP
°F
5-day plot - Dew Point
DEWP
°F
5-day plot - Salinity
SAL
psu
5-day plot - Visibility
VIS
nmi
5-day plot - Tide (above MLLW)
TIDE
ft
2023-12-06 10:30 pm W 15 19------ 35.6- 30.9---
2023-12-06 10:20 pm W 16 20------ 35.6- 31.3---
2023-12-06 10:10 pm W 16 18------ 35.8- 31.5---
2023-12-06 10:00 pm W 15 18------ 36.0- 31.6---
2023-12-06 09:50 pm W 17 20------ 36.1- 31.6---
2023-12-06 09:40 pm W 17 22------ 36.1- 31.6---
2023-12-06 09:30 pmWSW 17 20------ 36.3- 32.2---
2023-12-06 09:20 pmWSW 15 18------ 36.3- 32.5---
2023-12-06 09:10 pmWSW 14 17------ 36.5- 32.4---
2023-12-06 09:00 pmWSW 12 15------ 36.7- 32.0---
2023-12-06 08:50 pmWSW 11 13------ 36.7- 32.0---
2023-12-06 08:40 pmWSW 11 13------ 36.9- 32.4---
2023-12-06 08:30 pmWSW 11 12------ 37.0- 32.5---
2023-12-06 08:20 pmWSW 11 14------ 37.4- 32.7---
2023-12-06 08:10 pmWSW 10 12------ 37.2- 32.9---
2023-12-06 08:00 pmWSW 11 13------ 37.2- 32.7---
2023-12-06 07:50 pmWSW 11 14------ 37.8- 32.9---
2023-12-06 07:40 pm W 12 15------ 37.9- 32.9---
2023-12-06 07:30 pm W 10 12------ 38.1- 33.3---
2023-12-06 07:20 pm W 10 11------ 37.9- 33.1---
2023-12-06 07:10 pmWSW 9 11------ 38.1- 32.9---
2023-12-06 07:00 pmWSW 10 14------ 38.5- 32.7---
2023-12-06 06:50 pm W 12 15------ 38.7- 32.9---
2023-12-06 06:40 pm W 10 13------ 38.7- 32.9---
2023-12-06 06:30 pm W 10 13------ 38.5- 32.7---
2023-12-06 06:20 pmWSW 7 9------ 37.9- 33.1---
2023-12-06 06:10 pm W 8 9------ 38.1- 32.5---
2023-12-06 06:00 pm W 8 9------ 38.3- 32.7---
2023-12-06 05:50 pm W 8 10------ 38.5- 32.7---
2023-12-06 05:40 pm W 9 10------ 38.5- 32.7---
2023-12-06 05:30 pm W 9 10------ 38.5- 32.7---
2023-12-06 05:20 pm W 8 10------ 38.5- 32.9---
2023-12-06 05:10 pm W 8 10------ 38.5- 33.3---
2023-12-06 05:00 pm W 8 9------ 38.5- 33.3---
2023-12-06 04:50 pm W 8 9------ 38.7- 32.9---
2023-12-06 04:40 pm W 8 10------ 38.7- 33.3---
2023-12-06 04:30 pm W 10 12------ 38.7- 33.3---
2023-12-06 04:20 pm W 11 13------ 38.7- 33.3---
2023-12-06 04:10 pm W 11 12------ 38.7- 33.1---
2023-12-06 04:00 pm W 11 13------ 38.8- 32.9---
2023-12-06 03:50 pm W 12 15------ 39.0- 32.5---
2023-12-06 03:40 pm W 10 12------ 39.0- 32.9---
2023-12-06 03:30 pm W 10 11------ 38.8- 32.9---
2023-12-06 03:20 pmWSW 9 11------ 38.7- 33.1---
2023-12-06 03:10 pmWSW 9 11------ 38.7- 33.1---
2023-12-06 03:00 pm W 6 10------ 38.5- 32.5---
2023-12-06 02:50 pm W 6 9------ 38.5- 32.4---
2023-12-06 02:40 pmWNW 7 9------ 38.5- 32.2---
2023-12-06 02:30 pm W 7 8------ 38.3- 31.8---
2023-12-06 02:20 pm W 7 9------ 38.3- 32.2---
2023-12-06 02:10 pm W 7 9------ 38.5- 32.4---
2023-12-06 02:00 pm W 8 10------ 38.3- 32.5---
2023-12-06 01:50 pm W 9 11------ 38.1- 32.2---
2023-12-06 01:40 pmWNW 9 11------ 37.4- 32.5---
2023-12-06 01:30 pmWNW 8 10------ 37.4- 32.5---
2023-12-06 01:20 pmWNW 7 8------ 37.2- 32.2---
2023-12-06 01:10 pmWNW 6 8------ 37.0- 32.2---
2023-12-06 01:00 pm W 6 9------ 36.7- 32.0---
2023-12-06 12:50 pm W 8 9------ 36.7- 31.6---
2023-12-06 12:40 pm W 8 9------ 36.5- 31.8---
2023-12-06 12:30 pm W 8 10------ 36.1- 31.6---
2023-12-06 12:20 pm W 8 10------ 35.8- 31.3---
2023-12-06 12:10 pmWNW 8 11------ 35.4- 30.7---
2023-12-06 12:00 pm W 8 11------ 35.1- 30.4---
2023-12-06 11:50 am W 8 10------ 34.9- 30.4---
2023-12-06 11:40 am W 7 9------ 34.9- 30.4---
2023-12-06 11:30 amWNW 7 9------ 34.7- 30.0---
2023-12-06 11:20 amWNW 9 11------ 34.5- 29.8---
2023-12-06 11:10 amWNW 9 11------ 34.5- 29.7---
2023-12-06 11:00 amWNW 10 13------ 34.5- 29.8---
2023-12-06 10:50 amWNW 11 13------ 34.3- 29.8---
2023-12-06 10:40 amWNW 11 13------ 34.5- 30.0---
2023-12-06 10:30 amWNW 11 13------ 34.3- 29.8---
2023-12-06 10:20 amWNW 11 13------ 34.3- 29.7---
2023-12-06 10:10 amWNW 11 13------ 34.3- 29.7---
2023-12-06 10:00 am NW 9 12------ 34.2- 29.7---
2023-12-06 09:50 amWNW 10 12------ 33.8- 29.5---
2023-12-06 09:40 amWNW 10 14------ 33.6- 29.3---
2023-12-06 09:30 amWNW 11 16------ 33.6- 29.1---
2023-12-06 09:20 amWNW 11 13------ 33.4- 29.3---
2023-12-06 09:10 amWNW 11 14------ 33.3- 29.1---
2023-12-06 09:00 am NW 12 15------ 33.1- 29.1---
2023-12-06 08:50 am NW 13 16------ 33.1- 28.9---
2023-12-06 08:40 amNNW 11 13------ 33.1- 28.8---
2023-12-06 08:30 amNNW 11 13------ 33.1- 28.8---
2023-12-06 08:20 amNNW 11 14------ 33.1- 28.6---
2023-12-06 08:10 amNNW 11 15------ 32.9- 28.4---
2023-12-06 08:00 amNNW 11 14------ 32.9- 28.4---
2023-12-06 07:50 amNNW 11 14------ 32.9- 28.6---
2023-12-06 07:40 amNNW 11 14------ 32.5- 28.4---
2023-12-06 07:30 amNNW 11 15------ 32.5- 28.4---
2023-12-06 07:20 amNNW 12 15------ 32.7- 28.8---
2023-12-06 07:10 amNNW 12 15------ 32.7- 28.4---
2023-12-06 07:00 amNNW 10 13------ 32.7- 28.4---
2023-12-06 06:50 amNNW 9 14------ 32.7- 28.4---
2023-12-06 06:40 amNNW 10 13------ 32.5- 28.4---
2023-12-06 06:30 am N 9 12------ 32.7- 28.4---
2023-12-06 06:20 am N 11 14------ 32.7- 28.2---
2023-12-06 06:10 am N 12 16------ 32.7- 28.4---
2023-12-06 06:00 am N 13 18------ 32.9- 28.4---
2023-12-06 05:50 amNNW 15 19------ 33.1- 28.6---
2023-12-06 05:40 amNNW 16 19------ 33.3- 28.9---
2023-12-06 05:30 amNNW 15 19------ 33.3- 28.9---
2023-12-06 05:20 amNNW 16 20------ 33.3- 28.6---
2023-12-06 05:10 amNNW 16 18------ 33.3- 28.8---
2023-12-06 05:00 amNNW 14 17------ 33.3- 28.6---
2023-12-06 04:50 amNNW 13 16------ 33.4- 28.6---
2023-12-06 04:40 amNNW 14 18------ 33.4- 28.4---
2023-12-06 04:30 am N 16 19------ 33.6- 28.6---
2023-12-06 04:20 am N 17 20------ 33.6- 28.6---
2023-12-06 04:10 am N 16 19------ 33.6- 28.4---
2023-12-06 04:00 am N 15 18------ 33.8- 28.0---
2023-12-06 03:50 am N 16 19------ 33.8- 28.2---
2023-12-06 03:40 am N 16 19------ 33.8- 28.2---
2023-12-06 03:30 am N 17 22------ 34.0- 28.4---
2023-12-06 03:20 amNNW 19 22------ 34.0- 28.4---
2023-12-06 03:10 amNNW 17 20------ 34.2- 28.8---
2023-12-06 03:00 amNNW 17 21------ 34.3- 28.8---
2023-12-06 02:50 amNNW 18 20------ 34.5- 29.1---
2023-12-06 02:40 amNNW 18 20------ 34.7- 29.1---
2023-12-06 02:30 amNNW 18 21------ 34.9- 29.1---
2023-12-06 02:20 amNNW 18 22------ 35.1- 29.3---
2023-12-06 02:10 amNNW 18 21------ 35.1- 29.1---
2023-12-06 02:00 amNNW 16 20------ 35.2- 29.7---
2023-12-06 01:50 amNNW 15 17------ 35.4- 30.0---
2023-12-06 01:40 amNNW 15 17------ 35.4- 30.0---
2023-12-06 01:30 amNNW 13 15------ 35.4- 30.7---
2023-12-06 01:20 amNNW 12 15------ 35.6- 30.2---
2023-12-06 01:10 am N 12 15------ 35.6- 29.5---
2023-12-06 01:00 am N 13 16------ 35.8- 29.1---
2023-12-06 12:50 am N 13 15------ 36.0- 28.9---
2023-12-06 12:40 am N 13 16------ 36.0- 28.8---
2023-12-06 12:30 am N 14 17------ 36.0- 28.6---
2023-12-06 12:20 am N 15 18------ 36.0- 28.6---
2023-12-06 12:10 am N 15 18------ 36.1- 28.6---
2023-12-06 12:00 amNNE 13 16------ 36.1- 29.5---
2023-12-05 11:50 pmNNE 13 16------ 36.3- 29.1---
2023-12-05 11:40 pmNNE 14 17------ 36.5- 28.9---
2023-12-05 11:30 pm N 14 18------ 36.5- 29.1---
2023-12-05 11:20 pm N 13 19------ 36.5- 29.7---
2023-12-05 11:10 pmNNE 14 18------ 36.5- 29.7---
2023-12-05 11:00 pmNNE 16 20------ 36.7- 29.7---
2023-12-05 10:50 pmNNE 14 17------ 36.5- 30.9---